Tudela, Spain
Current Conditions -  °F | °C
As of 11:00 PM on Sunday 23 Nov 2014 (Local Time) from LEZG Reporting Station
Broken Clouds Broken Clouds  
Wind Chill: 59°   Ceiling: 8500
Heat Index: 59°   Visibility: 6mi
Dew Point: 55°   Wind: 8mph
Humidity: 88%   Direction: 70°ENE
Pressure: 30"   Gusts: NA
Location:  42.06°N, 1.61°W
Report Text: LEZG 232200Z 07007KT 9999 BKN085 15/13 Q1016
Loading
Personal Weather Stations






























Interactive Weather Map New forecast layout! Learn more

10-Day Weather Forecast

Advertisements
Track Severe Weather on mobile